Time;durP1;ratioP1;P1;durP2;ratioP2;P2;SDS_P1;SDS_P2;PMS_P1;PMS_P2;Temp;Humidity;BMP_temperature;BMP_pressure;BME280_temperature;BME280_humidity;BME280_pressure;Samples;Min_cycle;Max_cycle;Signal;HPM_P1;HPM_P2
2022/02/03 00:01:19;;;;;;;;;5.00;3.50;;;;;;;;5051798;28;45480;-70
2022/02/03 00:03:54;;;;;;;;;3.75;3.75;;;;;;;;5052471;28;45647;-71
2022/02/03 00:06:24;;;;;;;;;3.75;3.50;;;;;;;;5050647;28;46169;-69
2022/02/03 00:09:07;;;;;;;;;5.50;4.25;;;;;;;;5052481;28;45833;-67
2022/02/03 00:27:51;;;;;;;;;3.75;2.50;;;;;;;;4971906;28;45485;-67
2022/02/03 00:30:18;;;;;;;;;5.25;3.75;;;;;;;;4972894;28;45430;-67
2022/02/03 00:48:44;;;;;;;;;6.00;6.00;;;;;;;;4971645;28;45820;-66
2022/02/03 00:51:10;;;;;;;;;6.25;6.25;;;;;;;;5021232;28;45324;-66
2022/02/03 00:53:36;;;;;;;;;8.25;5.75;;;;;;;;5054170;28;45411;-67
2022/02/03 00:56:07;;;;;;;;;8.00;8.00;;;;;;;;5054170;28;45509;-66
2022/02/03 00:58:37;;;;;;;;;4.75;4.00;;;;;;;;5053724;28;45497;-68
2022/02/03 01:01:03;;;;;;;;;3.75;3.75;;;;;;;;5053905;28;45411;-67
2022/02/03 01:03:29;;;;;;;;;8.00;4.75;;;;;;;;5054037;28;45222;-66
2022/02/03 01:05:56;;;;;;;;;6.00;4.25;;;;;;;;5053368;28;45424;-67
2022/02/03 01:08:24;;;;;;;;;7.00;4.50;;;;;;;;5054091;28;46309;-67
2022/02/03 01:10:54;;;;;;;;;6.00;6.00;;;;;;;;5054229;28;45466;-67
2022/02/03 01:13:36;;;;;;;;;5.00;5.00;;;;;;;;5054287;28;45392;-67
2022/02/03 01:43:24;;;;;;;;;8.50;7.00;;;;;;;;4952720;28;45359;-66
2022/02/03 01:45:56;;;;;;;;;7.00;5.50;;;;;;;;4952967;28;45549;-67
2022/02/03 01:53:41;;;;;;;;;5.00;5.00;;;;;;;;4952298;28;45462;-66
2022/02/03 01:56:10;;;;;;;;;5.50;5.50;;;;;;;;4964361;28;45527;-67
2022/02/03 01:58:39;;;;;;;;;7.25;4.75;;;;;;;;4975504;28;45430;-66
2022/02/03 02:01:04;;;;;;;;;5.00;5.00;;;;;;;;4974966;28;46228;-68
2022/02/03 02:03:32;;;;;;;;;7.75;6.25;;;;;;;;4975185;28;45356;-67
2022/02/03 02:05:57;;;;;;;;;7.00;5.25;;;;;;;;4975784;28;45334;-67
2022/02/03 02:08:22;;;;;;;;;3.40;3.20;;;;;;;;4975214;28;45482;-67
2022/02/03 02:11:11;;;;;;;;;4.75;4.75;;;;;;;;4958861;28;47373;-67
2022/02/03 02:19:46;;;;;;;;;6.25;5.25;;;;;;;;5040662;28;45339;-66
2022/02/03 02:43:58;;;;;;;;;8.25;5.75;;;;;;;;5055984;28;46135;-67
2022/02/03 02:46:39;;;;;;;;;10.25;5.00;;;;;;;;5056071;28;45335;-68
2022/02/03 02:49:19;;;;;;;;;5.25;4.25;;;;;;;;5042096;28;45445;-67
2022/02/03 02:51:56;;;;;;;;;4.00;4.00;;;;;;;;5056570;28;45318;-66
2022/02/03 03:35:45;;;;;;;;;4.75;4.75;;;;;;;;4992088;28;45437;-66
2022/02/03 03:38:12;;;;;;;;;4.25;3.50;;;;;;;;4993232;28;46358;-67
2022/02/03 03:40:45;;;;;;;;;5.25;5.25;;;;;;;;4993256;28;45562;-66
2022/02/03 03:43:12;;;;;;;;;6.00;3.75;;;;;;;;5048443;28;45308;-65
2022/02/03 03:45:44;;;;;;;;;5.75;5.50;;;;;;;;5055236;28;45472;-67
2022/02/03 03:48:15;;;;;;;;;6.50;6.25;;;;;;;;5055679;28;46217;-66
2022/02/03 03:50:40;;;;;;;;;3.50;3.25;;;;;;;;5055068;28;45343;-66
2022/02/03 03:53:10;;;;;;;;;5.50;4.00;;;;;;;;5055129;28;45407;-66
2022/02/03 04:29:19;;;;;;;;;4.75;4.75;;;;;;;;5054298;28;45341;-68
2022/02/03 04:59:33;;;;;;;;;4.50;4.50;;;;;;;;5052948;28;45528;-68
2022/02/03 05:02:44;;;;;;;;;6.75;4.75;;;;;;;;5053404;28;45353;-66
2022/02/03 05:05:02;;;;;;;;;6.25;5.25;;;;;;;;5045147;28;45350;-67
2022/02/03 05:08:06;;;;;;;;;8.75;7.00;;;;;;;;5035329;28;45388;-67
2022/02/03 05:48:14;;;;;;;;;4.00;2.50;;;;;;;;4924519;28;45400;-67
2022/02/03 06:09:20;;;;;;;;;6.50;6.50;;;;;;;;5055969;28;45480;-67
2022/02/03 06:12:25;;;;;;;;;8.00;7.00;;;;;;;;5055064;28;46219;-69
2022/02/03 06:20:41;;;;;;;;;7.25;7.00;;;;;;;;4992725;28;45463;-67
2022/02/03 06:21:09;;;;;;;;;11.25;11.25;;;;;;;;4992098;28;45365;-67
2022/02/03 06:23:41;;;;;;;;;11.00;10.50;;;;;;;;4991759;28;45474;-67
2022/02/03 06:28:56;;;;;;;;;13.25;10.75;;;;;;;;4987936;28;45651;-68
2022/02/03 06:31:21;;;;;;;;;14.25;11.25;;;;;;;;4980626;28;45459;-66
2022/02/03 06:33:46;;;;;;;;;17.50;15.25;;;;;;;;4992581;28;47445;-67
2022/02/03 06:36:11;;;;;;;;;13.25;11.00;;;;;;;;4993426;28;45358;-66
2022/02/03 06:38:36;;;;;;;;;15.00;14.75;;;;;;;;4992668;28;45330;-67
2022/02/03 06:41:03;;;;;;;;;14.50;10.75;;;;;;;;4992096;28;45531;-67
2022/02/03 06:43:29;;;;;;;;;9.50;8.50;;;;;;;;4991275;28;45381;-68
2022/02/03 06:46:01;;;;;;;;;12.25;12.25;;;;;;;;4991701;28;45397;-68
2022/02/03 06:48:28;;;;;;;;;11.00;9.25;;;;;;;;4991960;28;45529;-66
2022/02/03 06:51:02;;;;;;;;;14.50;12.50;;;;;;;;4991757;28;45567;-68
2022/02/03 06:53:31;;;;;;;;;9.50;9.50;;;;;;;;5023367;28;46259;-68
2022/02/03 06:56:30;;;;;;;;;13.00;11.75;;;;;;;;5034404;28;45595;-67
2022/02/03 06:58:51;;;;;;;;;17.50;14.75;;;;;;;;5053309;28;45431;-67
2022/02/03 07:01:21;;;;;;;;;6.75;6.25;;;;;;;;5054377;28;45280;-67
2022/02/03 07:03:55;;;;;;;;;8.25;6.75;;;;;;;;5054323;28;46442;-69
2022/02/03 07:06:20;;;;;;;;;13.00;12.00;;;;;;;;5050199;28;45510;-70
2022/02/03 07:08:47;;;;;;;;;14.75;13.75;;;;;;;;5052770;28;45268;-68
2022/02/03 07:11:17;;;;;;;;;13.25;13.25;;;;;;;;5052896;28;45529;-69
2022/02/03 07:13:42;;;;;;;;;12.00;12.00;;;;;;;;5053351;28;46196;-67
2022/02/03 07:16:08;;;;;;;;;13.25;11.50;;;;;;;;5052941;28;45411;-69
2022/02/03 07:18:33;;;;;;;;;13.50;13.00;;;;;;;;5053463;28;45404;-68
2022/02/03 07:20:58;;;;;;;;;13.50;12.25;;;;;;;;5054098;28;45351;-69
2022/02/03 07:23:23;;;;;;;;;20.25;16.00;;;;;;;;5052251;28;45449;-69
2022/02/03 07:25:48;;;;;;;;;15.25;14.00;;;;;;;;5053079;28;45399;-68
2022/02/03 07:28:14;;;;;;;;;16.50;14.75;;;;;;;;5053113;28;45727;-68
2022/02/03 07:30:39;;;;;;;;;14.75;13.25;;;;;;;;5053212;28;45363;-68
2022/02/03 07:33:06;;;;;;;;;18.25;15.00;;;;;;;;5053383;28;46984;-68
2022/02/03 07:35:34;;;;;;;;;18.25;13.75;;;;;;;;5053541;28;45447;-70
2022/02/03 07:38:01;;;;;;;;;12.00;11.25;;;;;;;;5052467;28;45319;-67
2022/02/03 07:40:27;;;;;;;;;9.75;6.25;;;;;;;;5053253;28;45438;-68
2022/02/03 07:42:54;;;;;;;;;11.50;9.75;;;;;;;;5053135;28;45351;-67
2022/02/03 07:45:20;;;;;;;;;12.50;10.25;;;;;;;;5049656;28;45389;-68
2022/02/03 07:47:49;;;;;;;;;14.25;13.00;;;;;;;;5053140;28;45483;-67
2022/02/03 07:50:15;;;;;;;;;16.75;13.00;;;;;;;;5053007;28;45488;-68
2022/02/03 07:52:41;;;;;;;;;16.75;16.00;;;;;;;;5050881;28;46405;-68
2022/02/03 07:55:06;;;;;;;;;16.25;15.25;;;;;;;;5042049;28;45832;-68
2022/02/03 07:57:32;;;;;;;;;15.00;11.75;;;;;;;;5051666;28;45743;-69
2022/02/03 07:59:57;;;;;;;;;12.00;12.00;;;;;;;;5049384;28;45489;-68
2022/02/03 08:02:23;;;;;;;;;14.25;13.25;;;;;;;;5050594;28;46215;-67
2022/02/03 08:04:49;;;;;;;;;8.75;8.25;;;;;;;;5052306;28;45431;-67
2022/02/03 08:07:17;;;;;;;;;22.50;18.00;;;;;;;;5045577;28;45393;-69
2022/02/03 08:09:58;;;;;;;;;15.50;13.00;;;;;;;;5050986;28;45661;-68
2022/02/03 08:12:29;;;;;;;;;16.50;16.50;;;;;;;;5049527;28;47379;-69
2022/02/03 08:14:55;;;;;;;;;15.75;13.50;;;;;;;;5053490;28;45418;-68
2022/02/03 08:17:24;;;;;;;;;14.75;14.75;;;;;;;;5052912;28;46759;-69
2022/02/03 08:22:22;;;;;;;;;12.50;11.75;;;;;;;;5051752;28;46061;-68
2022/02/03 08:25:02;;;;;;;;;17.00;16.00;;;;;;;;5051004;28;45272;-68
2022/02/03 08:28:03;;;;;;;;;15.00;12.00;;;;;;;;5048187;28;45474;-69
2022/02/03 08:30:35;;;;;;;;;14.00;12.75;;;;;;;;5045295;28;45544;-69
2022/02/03 08:33:01;;;;;;;;;18.75;18.00;;;;;;;;5044956;28;46272;-69
2022/02/03 08:35:44;;;;;;;;;14.25;14.25;;;;;;;;5045784;28;45494;-69
2022/02/03 08:43:10;;;;;;;;;17.00;16.75;;;;;;;;5052269;28;45288;-69
2022/02/03 08:45:35;;;;;;;;;17.25;15.75;;;;;;;;5051940;28;47992;-70
2022/02/03 08:48:00;;;;;;;;;13.50;13.50;;;;;;;;5052685;28;45408;-69
2022/02/03 08:50:27;;;;;;;;;19.50;18.00;;;;;;;;5051384;28;45360;-69
2022/02/03 08:55:36;;;;;;;;;16.50;15.00;;;;;;;;5051878;28;45381;-70
2022/02/03 09:35:51;;;;;;;;;14.75;14.00;;;;;;;;5054220;28;45522;-68
2022/02/03 09:54:28;;;;;;;;;18.50;18.25;;;;;;;;5054515;28;45333;-68
2022/02/03 09:59:20;;;;;;;;;16.50;13.75;;;;;;;;5053876;28;45294;-69
2022/02/03 10:01:53;;;;;;;;;14.00;14.00;;;;;;;;5054446;28;45393;-70
2022/02/03 10:04:43;;;;;;;;;18.50;14.75;;;;;;;;5054922;28;45357;-71
2022/02/03 10:07:15;;;;;;;;;20.00;17.00;;;;;;;;5041380;28;47745;-70
2022/02/03 10:09:41;;;;;;;;;19.75;17.50;;;;;;;;5054421;28;45447;-68
2022/02/03 10:12:07;;;;;;;;;19.75;18.00;;;;;;;;5054724;28;45405;-69
2022/02/03 10:14:40;;;;;;;;;18.75;17.25;;;;;;;;5050616;28;45547;-69
2022/02/03 10:17:07;;;;;;;;;17.75;13.75;;;;;;;;5052928;28;46435;-70
2022/02/03 10:19:45;;;;;;;;;18.00;17.50;;;;;;;;5037083;28;45329;-69
2022/02/03 10:22:22;;;;;;;;;18.00;17.50;;;;;;;;5054380;28;45483;-70
2022/02/03 10:24:50;;;;;;;;;26.00;19.25;;;;;;;;5054125;28;45561;-68
2022/02/03 10:27:22;;;;;;;;;25.25;22.25;;;;;;;;5054492;28;47132;-70
2022/02/03 10:29:47;;;;;;;;;27.00;20.50;;;;;;;;5053803;28;45374;-67
2022/02/03 10:32:13;;;;;;;;;20.00;18.50;;;;;;;;5050571;28;45961;-70
2022/02/03 10:34:42;;;;;;;;;19.25;17.00;;;;;;;;5048925;28;45384;-69
2022/02/03 10:40:06;;;;;;;;;18.00;18.00;;;;;;;;5054225;28;45371;-68
2022/02/03 10:48:18;;;;;;;;;22.50;19.00;;;;;;;;5053410;28;46075;-69
2022/02/03 11:06:23;;;;;;;;;23.50;22.50;;;;;;;;5052535;28;45505;-69
2022/02/03 11:09:04;;;;;;;;;22.25;21.75;;;;;;;;5052805;28;46611;-69
2022/02/03 11:11:35;;;;;;;;;26.50;21.25;;;;;;;;5052027;28;45411;-69
2022/02/03 11:14:02;;;;;;;;;24.00;21.25;;;;;;;;5052623;28;45322;-68
2022/02/03 11:16:29;;;;;;;;;26.75;22.25;;;;;;;;5052609;28;45432;-68
2022/02/03 11:18:56;;;;;;;;;21.25;21.25;;;;;;;;5049444;28;45514;-70
2022/02/03 11:21:21;;;;;;;;;20.75;18.75;;;;;;;;5052141;28;45428;-69
2022/02/03 11:23:54;;;;;;;;;23.50;21.25;;;;;;;;5051615;28;45333;-68
2022/02/03 11:26:36;;;;;;;;;26.50;24.25;;;;;;;;5052229;28;45442;-70
2022/02/03 11:29:20;;;;;;;;;26.50;25.50;;;;;;;;5051305;28;47279;-71
2022/02/03 11:45:11;;;;;;;;;22.50;20.25;;;;;;;;5051265;28;45524;-71
2022/02/03 11:58:43;;;;;;;;;15.25;11.75;;;;;;;;5052724;28;45812;-71
2022/02/03 12:15:46;;;;;;;;;22.75;21.00;;;;;;;;5049203;28;45313;-69
2022/02/03 12:20:30;;;;;;;;;13.25;13.25;;;;;;;;5052264;28;45457;-70
2022/02/03 12:23:11;;;;;;;;;21.00;18.50;;;;;;;;5051185;28;47588;-70
2022/02/03 12:25:54;;;;;;;;;19.25;18.25;;;;;;;;5051720;28;45662;-69
2022/02/03 12:31:09;;;;;;;;;23.75;21.00;;;;;;;;5051845;28;45572;-70
2022/02/03 12:38:54;;;;;;;;;22.25;20.00;;;;;;;;5051210;28;45554;-69
2022/02/03 12:41:32;;;;;;;;;29.00;24.00;;;;;;;;5050126;28;45325;-70
2022/02/03 12:44:01;;;;;;;;;21.50;18.75;;;;;;;;5031328;28;47333;-70
2022/02/03 12:46:27;;;;;;;;;21.75;20.75;;;;;;;;5051307;28;45261;-71
2022/02/03 12:49:00;;;;;;;;;20.25;16.75;;;;;;;;5051123;28;45433;-70
2022/02/03 12:51:25;;;;;;;;;21.50;19.50;;;;;;;;5047549;28;45333;-71
2022/02/03 12:53:51;;;;;;;;;22.00;20.25;;;;;;;;5052333;28;45519;-69
2022/02/03 12:56:23;;;;;;;;;23.00;22.50;;;;;;;;5045240;28;47005;-68
2022/02/03 12:59:00;;;;;;;;;22.25;19.75;;;;;;;;5051009;28;45393;-66
2022/02/03 13:01:32;;;;;;;;;21.50;19.50;;;;;;;;5049915;28;45559;-67
2022/02/03 13:03:57;;;;;;;;;19.00;19.00;;;;;;;;5050182;28;46100;-69
2022/02/03 13:06:25;;;;;;;;;19.75;19.50;;;;;;;;5048952;28;45685;-68
2022/02/03 13:08:55;;;;;;;;;24.50;24.50;;;;;;;;5046976;28;45371;-68
2022/02/03 13:11:26;;;;;;;;;25.75;22.00;;;;;;;;5048679;28;45658;-69
2022/02/03 13:16:29;;;;;;;;;24.75;22.25;;;;;;;;5050386;28;45405;-69
2022/02/03 13:19:21;;;;;;;;;26.00;24.50;;;;;;;;5051251;28;45451;-68
2022/02/03 13:24:46;;;;;;;;;26.25;22.50;;;;;;;;5048935;28;45497;-65
2022/02/03 13:27:27;;;;;;;;;25.00;21.50;;;;;;;;5029552;28;45569;-66
2022/02/03 13:32:24;;;;;;;;;27.75;23.00;;;;;;;;5049866;28;45417;-67
2022/02/03 13:35:06;;;;;;;;;23.00;21.50;;;;;;;;5050489;28;46516;-68
2022/02/03 13:37:40;;;;;;;;;25.00;23.00;;;;;;;;5050448;28;45474;-67
2022/02/03 13:40:08;;;;;;;;;25.50;23.00;;;;;;;;5050026;28;45471;-68
2022/02/03 13:42:34;;;;;;;;;23.75;23.25;;;;;;;;5051336;28;45395;-68
2022/02/03 13:45:03;;;;;;;;;28.50;25.00;;;;;;;;5051404;28;45399;-67
2022/02/03 13:47:34;;;;;;;;;25.00;21.75;;;;;;;;5050727;28;45723;-68
2022/02/03 13:50:01;;;;;;;;;28.00;22.50;;;;;;;;5051128;28;45325;-68
2022/02/03 13:52:32;;;;;;;;;26.00;15.75;;;;;;;;5051613;28;45628;-66
2022/02/03 14:20:06;;;;;;;;;33.00;27.75;;;;;;;;4981452;28;45365;-69
2022/02/03 14:22:41;;;;;;;;;32.25;26.50;;;;;;;;4970597;28;45603;-68
2022/02/03 14:27:51;;;;;;;;;23.25;19.00;;;;;;;;4970609;28;45583;-69
2022/02/03 14:30:18;;;;;;;;;23.25;20.50;;;;;;;;4972430;28;45497;-70
2022/02/03 14:32:44;;;;;;;;;30.00;24.00;;;;;;;;4972073;28;45583;-68
2022/02/03 14:35:11;;;;;;;;;28.25;23.75;;;;;;;;4994019;28;46476;-69
2022/02/03 14:40:17;;;;;;;;;32.00;28.50;;;;;;;;5052611;28;45573;-70
2022/02/03 14:42:43;;;;;;;;;23.50;23.50;;;;;;;;5052934;28;45514;-69
2022/02/03 14:45:11;;;;;;;;;25.25;21.75;;;;;;;;5052016;28;45519;-70
2022/02/03 14:47:37;;;;;;;;;25.25;20.00;;;;;;;;5049552;28;46154;-69
2022/02/03 14:50:04;;;;;;;;;18.75;17.25;;;;;;;;5051977;28;45356;-69
2022/02/03 14:52:33;;;;;;;;;25.00;22.00;;;;;;;;5052369;28;45483;-69
2022/02/03 14:58:03;;;;;;;;;19.75;16.25;;;;;;;;5048315;28;45465;-68
2022/02/03 15:00:29;;;;;;;;;13.75;13.25;;;;;;;;5050246;28;45529;-69
2022/02/03 15:02:55;;;;;;;;;18.00;15.00;;;;;;;;5050226;28;45408;-69
2022/02/03 15:05:27;;;;;;;;;18.50;15.25;;;;;;;;5047977;28;45432;-70
2022/02/03 15:08:02;;;;;;;;;17.75;16.50;;;;;;;;5046859;28;46423;-68
2022/02/03 15:13:16;;;;;;;;;21.25;19.75;;;;;;;;5049665;28;45910;-69
2022/02/03 15:15:41;;;;;;;;;29.75;20.75;;;;;;;;5049673;28;45364;-68
2022/02/03 15:18:09;;;;;;;;;24.00;21.50;;;;;;;;5047974;28;46467;-67
2022/02/03 15:20:35;;;;;;;;;20.50;19.00;;;;;;;;5047558;28;45587;-68
2022/02/03 15:23:02;;;;;;;;;30.50;24.00;;;;;;;;5052727;28;45566;-69
2022/02/03 15:25:27;;;;;;;;;20.50;18.00;;;;;;;;5053568;28;45442;-69
2022/02/03 15:27:54;;;;;;;;;20.75;19.00;;;;;;;;5053166;28;45551;-68
2022/02/03 15:30:20;;;;;;;;;20.25;19.25;;;;;;;;5050074;28;45450;-68
2022/02/03 15:32:45;;;;;;;;;25.25;20.25;;;;;;;;5052685;28;45458;-67
2022/02/03 15:35:18;;;;;;;;;20.75;19.75;;;;;;;;5052620;28;45432;-69
2022/02/03 15:37:46;;;;;;;;;20.50;18.25;;;;;;;;5052654;28;46314;-71
2022/02/03 15:40:16;;;;;;;;;22.50;22.25;;;;;;;;5052699;28;45318;-68
2022/02/03 15:42:50;;;;;;;;;23.25;19.00;;;;;;;;5051847;28;46897;-70
2022/02/03 15:45:16;;;;;;;;;23.00;18.00;;;;;;;;5052359;28;45343;-69
2022/02/03 15:47:47;;;;;;;;;24.00;19.00;;;;;;;;5034427;28;48098;-69
2022/02/03 16:17:22;;;;;;;;;28.75;24.25;;;;;;;;4989471;28;45390;-70
2022/02/03 16:22:49;;;;;;;;;16.00;15.75;;;;;;;;4976744;28;45392;-70
2022/02/03 16:54:39;;;;;;;;;20.25;17.00;;;;;;;;5050810;28;45381;-69
2022/02/03 16:57:14;;;;;;;;;21.50;19.00;;;;;;;;5052202;28;45507;-70
2022/02/03 16:59:49;;;;;;;;;19.50;16.75;;;;;;;;5051383;28;45384;-69
2022/02/03 17:02:15;;;;;;;;;24.00;19.75;;;;;;;;5050724;28;45467;-69
2022/02/03 17:04:41;;;;;;;;;20.25;18.25;;;;;;;;5051461;28;45306;-70
2022/02/03 17:07:06;;;;;;;;;19.50;16.50;;;;;;;;5051378;28;45465;-69
2022/02/03 17:09:32;;;;;;;;;21.00;19.50;;;;;;;;5052384;28;45482;-70
2022/02/03 17:11:58;;;;;;;;;19.50;18.75;;;;;;;;5052337;28;47244;-69
2022/02/03 17:14:23;;;;;;;;;23.25;19.25;;;;;;;;5051339;28;45367;-69
2022/02/03 17:16:48;;;;;;;;;21.75;19.75;;;;;;;;5051099;28;45463;-69
2022/02/03 17:19:13;;;;;;;;;18.25;14.75;;;;;;;;5051450;28;45466;-70
2022/02/03 17:21:38;;;;;;;;;19.50;16.00;;;;;;;;5051358;28;45671;-70
2022/02/03 17:24:04;;;;;;;;;19.50;17.00;;;;;;;;5051694;28;45209;-70
2022/02/03 17:26:37;;;;;;;;;10.75;10.00;;;;;;;;5052391;28;45482;-70
2022/02/03 17:29:18;;;;;;;;;22.75;20.00;;;;;;;;5054714;28;45269;-69
2022/02/03 18:17:15;;;;;;;;;18.50;14.50;;;;;;;;4895640;29;45478;-71
2022/02/03 18:25:47;;;;;;;;;18.50;14.50;;;;;;;;4891889;29;45377;-68
2022/02/03 20:10:57;;;;;;;;;21.25;18.75;;;;;;;;5048866;28;46012;-69
2022/02/03 20:13:22;;;;;;;;;21.50;16.50;;;;;;;;5051764;28;45479;-70
2022/02/03 20:15:48;;;;;;;;;21.75;19.50;;;;;;;;5052595;28;45372;-70
2022/02/03 20:18:14;;;;;;;;;22.75;20.50;;;;;;;;5062004;28;45615;-70
2022/02/03 20:20:40;;;;;;;;;23.25;20.25;;;;;;;;5051948;28;46354;-71
2022/02/03 20:23:11;;;;;;;;;17.50;16.75;;;;;;;;5051813;28;45316;-69
2022/02/03 20:25:37;;;;;;;;;16.75;16.75;;;;;;;;5052120;28;45468;-69
2022/02/03 20:28:04;;;;;;;;;21.75;19.75;;;;;;;;5051182;28;45372;-69
2022/02/03 20:30:29;;;;;;;;;18.00;18.00;;;;;;;;5053459;28;47775;-71
2022/02/03 20:32:54;;;;;;;;;21.00;18.00;;;;;;;;5052529;28;45277;-71
2022/02/03 20:35:20;;;;;;;;;29.00;25.50;;;;;;;;5050461;28;45384;-69
2022/02/03 20:37:45;;;;;;;;;17.75;13.75;;;;;;;;5051968;28;45737;-70
2022/02/03 20:40:10;;;;;;;;;16.00;16.00;;;;;;;;5050198;28;46015;-69
2022/02/03 20:42:36;;;;;;;;;22.00;18.00;;;;;;;;5052327;28;46033;-70
2022/02/03 20:45:01;;;;;;;;;20.75;16.75;;;;;;;;5052506;28;45316;-69
2022/02/03 20:47:28;;;;;;;;;19.25;17.25;;;;;;;;5052030;28;45559;-71
2022/02/03 20:49:54;;;;;;;;;20.00;18.25;;;;;;;;5050060;28;46463;-69
2022/02/03 20:52:19;;;;;;;;;14.25;13.75;;;;;;;;5050812;28;45380;-69
2022/02/03 20:54:47;;;;;;;;;20.50;17.50;;;;;;;;5051773;28;45419;-69
2022/02/03 20:57:14;;;;;;;;;16.50;16.50;;;;;;;;5052593;28;45523;-68
2022/02/03 21:02:26;;;;;;;;;17.75;16.50;;;;;;;;5056874;28;45392;-69
2022/02/03 21:05:06;;;;;;;;;21.75;17.75;;;;;;;;5058334;28;45428;-68
2022/02/03 21:07:34;;;;;;;;;18.75;18.25;;;;;;;;5058806;28;45371;-69
2022/02/03 21:10:03;;;;;;;;;14.25;11.50;;;;;;;;5046688;28;47085;-70
2022/02/03 21:12:29;;;;;;;;;21.50;21.50;;;;;;;;5059805;28;45391;-70
2022/02/03 21:14:55;;;;;;;;;20.00;16.50;;;;;;;;5056807;28;45264;-70
2022/02/03 21:17:25;;;;;;;;;22.75;20.25;;;;;;;;5056884;28;45300;-69
2022/02/03 21:19:50;;;;;;;;;15.50;15.50;;;;;;;;5058183;28;46104;-68
2022/02/03 21:22:15;;;;;;;;;24.75;22.00;;;;;;;;5058275;28;45518;-69
2022/02/03 21:24:41;;;;;;;;;23.50;21.50;;;;;;;;5057413;28;45530;-68
2022/02/03 21:27:06;;;;;;;;;18.25;16.25;;;;;;;;5059623;28;45480;-68
2022/02/03 21:29:32;;;;;;;;;17.50;16.75;;;;;;;;5056425;28;46153;-68
2022/02/03 21:31:57;;;;;;;;;22.25;19.75;;;;;;;;5056350;28;45475;-69
2022/02/03 21:34:24;;;;;;;;;17.50;15.75;;;;;;;;5056769;28;45450;-70
2022/02/03 21:36:54;;;;;;;;;16.00;11.25;;;;;;;;5058413;28;45613;-69
2022/02/03 21:39:19;;;;;;;;;16.00;14.00;;;;;;;;5059824;28;46112;-69
2022/02/03 21:41:45;;;;;;;;;21.00;17.50;;;;;;;;5056457;28;45478;-68
2022/02/03 21:44:14;;;;;;;;;15.50;15.50;;;;;;;;5056880;28;45454;-68
2022/02/03 21:46:40;;;;;;;;;17.50;16.50;;;;;;;;5056165;28;45335;-67
2022/02/03 21:49:05;;;;;;;;;14.75;13.75;;;;;;;;5049139;28;45509;-67
2022/02/03 21:51:35;;;;;;;;;17.75;16.50;;;;;;;;5046845;28;45356;-67
2022/02/03 21:54:01;;;;;;;;;20.75;19.75;;;;;;;;5050614;28;45553;-67
2022/02/03 21:56:26;;;;;;;;;15.25;13.75;;;;;;;;5042023;28;45529;-68
2022/02/03 21:58:52;;;;;;;;;18.00;15.50;;;;;;;;5043923;28;45310;-68
2022/02/03 22:01:20;;;;;;;;;19.00;16.00;;;;;;;;5041379;28;45501;-68
2022/02/03 22:03:45;;;;;;;;;12.50;11.50;;;;;;;;5024330;28;45439;-68
2022/02/03 22:06:10;;;;;;;;;21.25;16.00;;;;;;;;5045880;28;45506;-69
2022/02/03 22:08:36;;;;;;;;;11.25;11.25;;;;;;;;5051262;28;46986;-68
2022/02/03 22:11:01;;;;;;;;;17.50;14.00;;;;;;;;5044569;28;45467;-68
2022/02/03 22:13:33;;;;;;;;;19.50;13.25;;;;;;;;5039047;28;45513;-67
2022/02/03 22:15:59;;;;;;;;;15.75;12.75;;;;;;;;5037472;28;45387;-67
2022/02/03 22:18:25;;;;;;;;;19.00;16.00;;;;;;;;5056637;28;46104;-68
2022/02/03 22:20:56;;;;;;;;;18.25;17.00;;;;;;;;5051902;28;45375;-68
2022/02/03 22:40:08;;;;;;;;;13.75;12.75;;;;;;;;5055057;28;45438;-68
2022/02/03 22:47:24;;;;;;;;;16.25;13.75;;;;;;;;5054087;28;45542;-68
2022/02/03 22:49:49;;;;;;;;;17.00;14.00;;;;;;;;5054226;28;46068;-69
2022/02/03 22:52:18;;;;;;;;;15.50;13.75;;;;;;;;5052042;28;45442;-70
2022/02/03 22:54:43;;;;;;;;;15.25;13.75;;;;;;;;5054140;28;45434;-68
2022/02/03 22:57:08;;;;;;;;;17.75;15.50;;;;;;;;5055828;28;45410;-67
2022/02/03 23:02:05;;;;;;;;;13.00;13.00;;;;;;;;5053970;28;45400;-67
2022/02/03 23:04:31;;;;;;;;;16.00;15.00;;;;;;;;5051800;28;45379;-64
2022/02/03 23:07:05;;;;;;;;;17.25;16.25;;;;;;;;5055682;28;45478;-68
2022/02/03 23:15:03;;;;;;;;;19.00;15.75;;;;;;;;5055821;28;45515;-67
2022/02/03 23:17:41;;;;;;;;;15.50;14.75;;;;;;;;5055175;28;45395;-69
2022/02/03 23:22:33;;;;;;;;;20.00;18.00;;;;;;;;5055746;28;45321;-66
2022/02/03 23:25:00;;;;;;;;;13.75;13.25;;;;;;;;5055323;28;45448;-68
2022/02/03 23:29:54;;;;;;;;;17.00;16.00;;;;;;;;5055349;28;48421;-66
2022/02/03 23:32:20;;;;;;;;;13.25;12.00;;;;;;;;5055255;28;45593;-68
2022/02/03 23:34:52;;;;;;;;;17.50;16.25;;;;;;;;5055261;28;45455;-69
2022/02/03 23:37:17;;;;;;;;;16.75;16.25;;;;;;;;5055608;28;45225;-68
